createdAt,value
2019-05-16T00:03:20.666Z,4.83
2019-05-16T00:11:38.545Z,7.53
2019-05-16T00:19:56.149Z,8.60
2019-05-16T00:28:13.559Z,7.93
2019-05-16T00:36:31.039Z,10.77
2019-05-16T00:44:48.472Z,5.93
2019-05-16T00:53:05.935Z,8.63
2019-05-16T01:01:23.406Z,13.93
2019-05-16T01:09:40.868Z,5.45
2019-05-16T01:17:58.874Z,9.63
2019-05-16T01:26:18.382Z,9.30
2019-05-16T01:34:37.675Z,7.07
2019-05-16T01:42:54.920Z,6.97
2019-05-16T01:51:12.445Z,6.27
2019-05-16T01:59:30.241Z,5.57
2019-05-16T02:07:48.117Z,8.57
2019-05-16T02:16:08.169Z,9.50
2019-05-16T02:24:28.357Z,14.20
2019-05-16T02:32:44.445Z,15.13
2019-05-16T02:41:03.076Z,10.05
2019-05-16T02:49:21.661Z,8.30
2019-05-16T02:57:41.480Z,8.90
2019-05-16T03:06:01.432Z,17.33
2019-05-16T03:14:21.187Z,12.13
2019-05-16T03:22:41.090Z,10.20
2019-05-16T03:31:04.353Z,11.17
2019-05-16T03:39:21.031Z,10.83
2019-05-16T03:47:37.592Z,7.43
2019-05-16T03:55:55.138Z,8.70
2019-05-16T04:04:12.666Z,7.87
2019-05-16T04:12:30.971Z,9.20
2019-05-16T04:20:51.853Z,10.90
2019-05-16T04:29:11.504Z,11.53
2019-05-16T04:37:27.320Z,7.13
2019-05-16T04:45:44.862Z,5.00
2019-05-16T04:54:06.776Z,6.67
2019-05-16T05:02:21.756Z,8.70
2019-05-16T05:10:40.627Z,5.60
2019-05-16T05:19:00.321Z,6.23
2019-05-16T05:27:19.654Z,11.60
2019-05-16T05:35:36.933Z,5.60
2019-05-16T05:43:54.589Z,10.53
2019-05-16T05:52:12.740Z,8.77
2019-05-16T06:00:30.585Z,8.33
2019-05-16T06:08:50.041Z,11.37
2019-05-16T06:17:07.189Z,10.43
2019-05-16T06:25:24.627Z,6.73
2019-05-16T06:33:42.063Z,8.40
2019-05-16T06:42:00.549Z,5.10
2019-05-16T06:50:20.631Z,6.60
2019-05-16T06:58:45.604Z,5.10
2019-05-16T07:07:02.019Z,5.40
2019-05-16T07:15:16.161Z,6.47
2019-05-16T07:23:33.595Z,4.63
2019-05-16T07:31:52.401Z,6.80
2019-05-16T07:40:19.131Z,7.67
2019-05-16T07:48:31.540Z,15.07
2019-05-16T07:56:57.123Z,12.98
2019-05-16T08:05:10.319Z,14.10
2019-05-16T08:13:27.842Z,8.87
2019-05-16T08:22:11.449Z,14.80
2019-05-16T08:30:31.710Z,10.45
2019-05-16T08:38:51.205Z,10.80
2019-05-16T08:47:07.549Z,14.17
2019-05-16T08:55:25.003Z,19.70
2019-05-16T09:03:42.770Z,19.77
2019-05-16T09:12:00.223Z,8.77
2019-05-16T09:20:17.904Z,11.20
2019-05-16T09:28:38.836Z,9.10
2019-05-16T09:37:00.469Z,7.40
2019-05-16T09:45:13.823Z,7.90
2019-05-16T09:53:31.362Z,8.90
2019-05-16T10:01:48.898Z,13.70
2019-05-16T10:10:06.961Z,8.53
2019-05-16T10:18:24.576Z,9.33
2019-05-16T10:26:42.089Z,7.83
2019-05-16T10:34:59.639Z,6.10
2019-05-16T10:43:17.406Z,7.47
2019-05-16T10:51:37.577Z,6.25
2019-05-16T11:00:06.647Z,14.20
2019-05-16T11:08:13.303Z,5.70
2019-05-16T11:16:30.845Z,7.67
2019-05-16T11:24:48.304Z,8.80
2019-05-16T11:33:07.614Z,6.40
2019-05-16T11:41:27.329Z,8.83
2019-05-16T11:49:44.211Z,6.70
2019-05-16T11:58:01.681Z,6.60
2019-05-16T12:06:19.185Z,6.73
2019-05-16T12:14:36.766Z,7.10
2019-05-16T12:22:54.983Z,8.33
2019-05-16T12:31:12.461Z,5.93
2019-05-16T12:39:32.763Z,5.42
2019-05-16T12:47:50.342Z,8.50
2019-05-16T12:56:07.879Z,11.67
2019-05-16T13:04:27.998Z,10.80
2019-05-16T13:12:44.611Z,12.70
2019-05-16T13:21:02.073Z,13.10
2019-05-16T13:29:20.125Z,12.20
2019-05-16T13:37:37.581Z,18.60
2019-05-16T13:45:57.351Z,18.93
2019-05-16T13:54:14.224Z,14.97
2019-05-16T14:02:31.772Z,17.57
2019-05-16T14:10:49.434Z,21.80
2019-05-16T14:19:07.654Z,21.40
2019-05-16T14:27:26.830Z,23.03
2019-05-16T14:35:47.018Z,30.17
2019-05-16T14:44:03.753Z,44.03
2019-05-16T14:52:21.209Z,27.63
2019-05-16T15:00:38.691Z,37.10
2019-05-16T15:08:56.737Z,29.60
2019-05-16T15:17:16.771Z,32.97
2019-05-16T15:25:33.588Z,32.73
2019-05-16T15:33:51.067Z,41.80
2019-05-16T15:42:08.500Z,43.10
2019-05-16T15:50:28.119Z,28.47
2019-05-16T15:58:46.653Z,26.80
2019-05-16T16:07:11.194Z,27.03
2019-05-16T16:15:32.891Z,23.40
2019-05-16T16:23:54.544Z,28.83
2019-05-16T16:32:55.422Z,25.07
2019-05-16T16:50:28.608Z,22.00
2019-05-16T16:59:07.779Z,29.50
2019-05-16T17:07:40.208Z,23.83
2019-05-16T17:16:23.112Z,25.10
2019-05-16T17:42:23.904Z,26.50
2019-05-16T17:50:38.937Z,22.90
2019-05-16T17:58:56.938Z,20.50
2019-05-16T18:07:14.657Z,32.63
2019-05-16T18:15:32.081Z,24.90
2019-05-16T18:23:49.608Z,21.23
2019-05-16T18:32:07.177Z,19.40
2019-05-16T18:40:27.014Z,23.80
2019-05-16T18:48:44.174Z,24.10
2019-05-16T18:57:01.595Z,31.73
2019-05-16T19:05:19.063Z,29.57
2019-05-16T19:13:36.939Z,36.20
2019-05-16T19:21:56.646Z,30.00
2019-05-16T19:30:14.884Z,28.23
2019-05-16T19:38:32.736Z,31.43
2019-05-16T19:46:50.213Z,31.33
2019-05-16T19:55:08.050Z,54.70
2019-05-16T20:03:27.325Z,31.37
2019-05-16T20:11:46.357Z,25.73
2019-05-16T20:20:04.179Z,27.77
2019-05-16T20:28:21.634Z,30.97
2019-05-16T20:36:39.098Z,58.43
2019-05-16T20:44:57.543Z,82.50
2019-05-16T20:53:17.410Z,46.20
2019-05-16T21:01:34.424Z,24.57
2019-05-16T21:09:52.125Z,26.33
2019-05-16T21:18:09.956Z,33.40
2019-05-16T21:26:27.446Z,39.63
2019-05-16T21:34:46.875Z,38.53
2019-05-16T21:43:04.355Z,41.50
2019-05-16T21:51:21.775Z,46.00
2019-05-16T21:59:39.301Z,43.90
2019-05-16T22:07:56.921Z,44.40
2019-05-16T22:16:17.357Z,39.33
2019-05-16T22:24:33.783Z,41.80
2019-05-16T22:32:51.328Z,47.30
2019-05-16T22:41:10.749Z,45.43
2019-05-16T22:49:27.976Z,48.07
2019-05-16T22:57:47.387Z,47.13
2019-05-16T23:06:07.390Z,49.13
2019-05-16T23:14:26.263Z,40.23
2019-05-16T23:22:43.220Z,50.93
2019-05-16T23:31:00.688Z,66.13
2019-05-16T23:39:18.126Z,69.43
2019-05-16T23:47:36.574Z,59.23
2019-05-16T23:55:56.593Z,72.20
